Welsh, Louisiana
Current Conditions -  °F | °C
As of 8:15 PM on Saturday 22 Nov 2014 (Local Time) from K3R7 Reporting Station
Drizzle Drizzle  
Wind Chill: 65°   Ceiling: 1600
Heat Index: 65°   Visibility: 10mi
Dew Point: 63°   Wind: 12mph
Humidity: 91%   Direction: 110°ESE
Pressure: 29.89"   Gusts: NA
Location:  30.24°N, 92.82°W
Report Text: K3R7 230215Z AUTO 11010KT 10SM -DZ OVC016 19/17 A2989 RMK AO2 T01850170
Loading
Personal Weather Stations






























Interactive Weather Map New forecast layout! Learn more

10-Day Weather Forecast

Advertisements
Track Severe Weather on mobile